Time;durP1;ratioP1;P1;durP2;ratioP2;P2;SDS_P1;SDS_P2;PMS_P1;PMS_P2;Temp;Humidity;BMP_temperature;BMP_pressure;BME280_temperature;BME280_humidity;BME280_pressure;Samples;Min_cycle;Max_cycle;Signal;HPM_P1;HPM_P2
2021/08/18 00:00:15;;;;;;;4.93;4.33;;;14.60;99.90;;;;;;6273634;22;20619;-68
2021/08/18 00:02:40;;;;;;;7.03;4.87;;;14.50;99.90;;;;;;6274017;22;20219;-69
2021/08/18 00:05:11;;;;;;;8.33;5.40;;;14.60;99.90;;;;;;6273721;22;20231;-69
2021/08/18 00:07:37;;;;;;;5.93;4.43;;;14.60;99.90;;;;;;6273900;22;20145;-68
2021/08/18 00:10:08;;;;;;;9.33;5.33;;;14.70;99.90;;;;;;6273510;22;20599;-68
2021/08/18 00:12:34;;;;;;;5.07;4.57;;;14.70;99.90;;;;;;6273957;22;20138;-68
2021/08/18 00:14:59;;;;;;;6.33;4.27;;;14.80;99.90;;;;;;6273603;22;20178;-67
2021/08/18 00:17:25;;;;;;;7.10;4.87;;;14.70;99.90;;;;;;6273919;22;20153;-68
2021/08/18 00:19:51;;;;;;;7.83;5.27;;;14.80;99.90;;;;;;6246418;22;20160;-69
2021/08/18 00:22:16;;;;;;;6.17;4.90;;;14.70;99.90;;;;;;6273755;22;20178;-69
2021/08/18 00:24:42;;;;;;;6.20;4.97;;;14.70;99.90;;;;;;6273726;22;20603;-69
2021/08/18 00:27:07;;;;;;;7.10;5.37;;;14.50;99.90;;;;;;6273741;22;20222;-68
2021/08/18 00:29:33;;;;;;;8.40;5.80;;;14.50;99.90;;;;;;6273805;22;20204;-68
2021/08/18 00:31:59;;;;;;;6.17;4.60;;;14.40;99.90;;;;;;6273706;22;20157;-69
2021/08/18 00:34:25;;;;;;;5.20;4.23;;;15.80;99.90;;;;;;6273701;22;20766;-68
2021/08/18 00:36:50;;;;;;;5.97;4.80;;;14.30;99.90;;;;;;6273460;22;20203;-69
2021/08/18 00:39:16;;;;;;;5.80;4.40;;;14.30;99.90;;;;;;6273407;22;20145;-68
2021/08/18 00:41:44;;;;;;;5.67;4.87;;;14.20;99.90;;;;;;6273892;22;20569;-68
2021/08/18 00:44:10;;;;;;;5.47;4.23;;;14.10;99.90;;;;;;6273689;22;20160;-68
2021/08/18 00:46:53;;;;;;;6.93;4.70;;;14.10;99.90;;;;;;6273613;22;20173;-68
2021/08/18 00:49:22;;;;;;;6.27;4.90;;;14.20;99.90;;;;;;6273061;22;20150;-68
2021/08/18 00:51:49;;;;;;;5.63;4.80;;;14.00;99.90;;;;;;6273537;22;20197;-69
2021/08/18 00:54:16;;;;;;;7.03;4.57;;;14.00;99.90;;;;;;6273773;22;20183;-67
2021/08/18 00:56:43;;;;;;;7.17;5.03;;;14.00;99.90;;;;;;6273721;22;20178;-68
2021/08/18 00:59:10;;;;;;;7.03;4.80;;;14.10;99.90;;;;;;6271381;22;20153;-67
2021/08/18 01:01:38;;;;;;;6.20;4.70;;;14.10;99.90;;;;;;6273456;22;20226;-68
2021/08/18 01:04:04;;;;;;;6.70;5.27;;;14.00;99.90;;;;;;6273552;22;20146;-68
2021/08/18 01:06:31;;;;;;;6.17;4.97;;;13.90;99.90;;;;;;6273630;22;20519;-69
2021/08/18 01:08:57;;;;;;;7.33;5.43;;;13.90;99.90;;;;;;6273787;22;20534;-68
2021/08/18 01:11:23;;;;;;;6.17;4.80;;;13.90;99.90;;;;;;6274200;22;20154;-68
2021/08/18 01:13:48;;;;;;;6.60;5.00;;;13.90;99.90;;;;;;6273583;22;20478;-68
2021/08/18 01:16:14;;;;;;;8.07;5.00;;;14.00;99.90;;;;;;6273812;22;20504;-69
2021/08/18 01:18:40;;;;;;;6.47;4.87;;;14.10;99.90;;;;;;6273484;22;20193;-68
2021/08/18 01:21:07;;;;;;;6.73;5.37;;;14.20;99.90;;;;;;6273716;22;20165;-68
2021/08/18 01:23:32;;;;;;;5.50;4.80;;;14.00;99.90;;;;;;6273952;22;20148;-69
2021/08/18 01:25:58;;;;;;;8.90;5.33;;;14.00;99.90;;;;;;6246751;22;20574;-68
2021/08/18 01:28:27;;;;;;;7.63;5.03;;;14.20;99.90;;;;;;6273628;22;20222;-67
2021/08/18 01:30:53;;;;;;;5.53;4.77;;;14.20;99.90;;;;;;6273752;22;20163;-68
2021/08/18 01:33:19;;;;;;;6.23;5.10;;;14.30;99.90;;;;;;6273802;22;20182;-68
2021/08/18 01:35:47;;;;;;;7.87;5.07;;;14.40;99.90;;;;;;6273495;22;20210;-68
2021/08/18 01:38:15;;;;;;;6.13;4.93;;;14.40;99.90;;;;;;6273781;22;20142;-69
2021/08/18 01:40:43;;;;;;;6.83;5.07;;;14.50;99.90;;;;;;6273487;22;20160;-68
2021/08/18 01:43:10;;;;;;;7.07;5.10;;;14.40;99.90;;;;;;6273662;22;20485;-68
2021/08/18 01:45:38;;;;;;;6.30;4.70;;;14.30;99.90;;;;;;6246481;22;20211;-69
2021/08/18 01:48:25;;;;;;;8.37;5.33;;;14.40;99.90;;;;;;6273852;22;20235;-68
2021/08/18 01:50:54;;;;;;;8.83;5.27;;;14.40;99.90;;;;;;6273909;22;20140;-68
2021/08/18 01:53:25;;;;;;;8.03;5.37;;;14.30;99.90;;;;;;6274074;22;20233;-68
2021/08/18 01:55:51;;;;;;;5.87;4.80;;;14.20;99.90;;;;;;6273609;22;20532;-69
2021/08/18 01:58:17;;;;;;;6.27;5.00;;;14.20;99.90;;;;;;6273514;22;20153;-68
2021/08/18 02:00:42;;;;;;;9.07;5.30;;;14.30;99.90;;;;;;6273458;22;20218;-68
2021/08/18 02:03:08;;;;;;;7.13;5.07;;;14.30;99.90;;;;;;6273613;22;20520;-69
2021/08/18 02:05:34;;;;;;;6.20;4.60;;;14.40;99.90;;;;;;6275292;22;20173;-68
2021/08/18 02:07:59;;;;;;;6.70;5.20;;;14.50;99.90;;;;;;6275488;22;20182;-69
2021/08/18 02:10:27;;;;;;;7.63;5.00;;;14.60;99.90;;;;;;6275069;22;20159;-69
2021/08/18 02:12:53;;;;;;;7.37;5.17;;;14.70;99.90;;;;;;6275561;22;20174;-69
2021/08/18 02:15:28;;;;;;;6.03;4.70;;;14.80;99.90;;;;;;6275053;22;20511;-69
2021/08/18 02:17:54;;;;;;;7.40;5.07;;;14.70;99.90;;;;;;6275485;22;20148;-69
2021/08/18 02:20:23;;;;;;;8.20;5.63;;;14.70;99.90;;;;;;6275030;22;20152;-69
2021/08/18 02:22:49;;;;;;;6.63;5.00;;;14.70;99.90;;;;;;6275211;22;20786;-69
2021/08/18 02:25:15;;;;;;;8.53;5.00;;;14.80;99.90;;;;;;6274923;22;20170;-69
2021/08/18 02:27:41;;;;;;;10.10;5.00;;;14.80;99.90;;;;;;6275084;22;20155;-69
2021/08/18 02:30:08;;;;;;;7.37;5.23;;;14.90;99.90;;;;;;6247604;22;20153;-68
2021/08/18 02:32:34;;;;;;;6.70;5.13;;;14.90;99.90;;;;;;6275158;22;20150;-68
2021/08/18 02:35:00;;;;;;;6.47;4.90;;;14.90;99.90;;;;;;6274887;22;20180;-68
2021/08/18 02:37:25;;;;;;;7.13;5.10;;;14.80;99.90;;;;;;6275011;22;20187;-68
2021/08/18 02:39:51;;;;;;;7.27;5.57;;;14.90;99.90;;;;;;6274421;22;20145;-68
2021/08/18 02:42:17;;;;;;;6.43;5.20;;;14.80;99.90;;;;;;6274862;22;20153;-69
2021/08/18 02:44:43;;;;;;;7.00;5.27;;;14.70;99.90;;;;;;6274846;22;20225;-68
2021/08/18 02:47:09;;;;;;;9.03;5.40;;;14.60;99.90;;;;;;6274491;22;20173;-68
2021/08/18 02:49:34;;;;;;;6.93;5.10;;;14.60;99.90;;;;;;6274442;22;20665;-69
2021/08/18 02:52:00;;;;;;;7.63;5.20;;;14.70;99.90;;;;;;6274990;22;20161;-76
2021/08/18 02:54:26;;;;;;;7.90;6.03;;;14.80;99.90;;;;;;6274522;22;20177;-68
2021/08/18 02:56:54;;;;;;;8.57;5.87;;;14.70;99.90;;;;;;6274675;22;20813;-69
2021/08/18 02:59:20;;;;;;;8.70;5.60;;;14.50;99.90;;;;;;6274414;22;20149;-68
2021/08/18 03:01:47;;;;;;;7.57;5.23;;;14.20;99.90;;;;;;6274698;22;20153;-68
2021/08/18 03:04:12;;;;;;;6.90;5.33;;;14.20;99.90;;;;;;6274838;22;20159;-69
2021/08/18 03:06:38;;;;;;;5.73;4.77;;;14.20;99.90;;;;;;6274467;22;20173;-69
2021/08/18 03:09:03;;;;;;;8.20;5.60;;;14.10;99.90;;;;;;6274302;22;20150;-68
2021/08/18 03:11:29;;;;;;;8.07;5.37;;;14.10;99.90;;;;;;6274572;22;20150;-68
2021/08/18 03:13:54;;;;;;;8.77;5.70;;;14.10;99.90;;;;;;6274279;22;20158;-68
2021/08/18 03:16:20;;;;;;;7.53;5.93;;;14.10;99.90;;;;;;6274441;22;20165;-69
2021/08/18 03:18:45;;;;;;;5.87;5.13;;;14.20;99.90;;;;;;6274176;22;20148;-69
2021/08/18 03:21:11;;;;;;;7.40;5.23;;;14.30;99.90;;;;;;6274479;22;20216;-69
2021/08/18 03:23:37;;;;;;;7.47;5.07;;;14.40;99.90;;;;;;6274224;22;20223;-68
2021/08/18 03:26:02;;;;;;;8.07;5.43;;;14.50;99.90;;;;;;6274364;22;20176;-69
2021/08/18 03:28:28;;;;;;;8.70;5.53;;;14.50;99.90;;;;;;6274079;22;20663;-69
2021/08/18 03:30:53;;;;;;;7.80;5.30;;;14.60;99.90;;;;;;6274243;22;20148;-69
2021/08/18 03:33:19;;;;;;;8.50;5.83;;;14.70;99.90;;;;;;6274118;22;20152;-69
2021/08/18 03:35:45;;;;;;;6.87;5.43;;;14.80;99.90;;;;;;6274139;22;20211;-69
2021/08/18 03:38:10;;;;;;;8.43;5.17;;;14.90;99.90;;;;;;6274165;22;20196;-69
2021/08/18 03:40:36;;;;;;;8.03;5.50;;;14.90;99.90;;;;;;6273969;22;20210;-68
2021/08/18 03:43:02;;;;;;;7.37;5.60;;;14.80;99.90;;;;;;6274079;22;20477;-69
2021/08/18 03:45:28;;;;;;;7.23;5.53;;;14.70;99.90;;;;;;6274119;22;20218;-68
2021/08/18 03:47:54;;;;;;;7.77;6.00;;;14.80;99.90;;;;;;6274140;22;20158;-69
2021/08/18 03:50:19;;;;;;;7.60;5.73;;;14.80;99.90;;;;;;6273849;22;20156;-69
2021/08/18 03:52:45;;;;;;;9.23;6.10;;;14.70;99.90;;;;;;6273923;22;20220;-69
2021/08/18 03:55:12;;;;;;;9.17;6.33;;;14.40;99.90;;;;;;6273783;22;20661;-68
2021/08/18 03:57:37;;;;;;;8.53;6.43;;;14.10;99.90;;;;;;6274114;22;20141;-68
2021/08/18 04:00:04;;;;;;;8.37;6.13;;;13.80;99.90;;;;;;6273776;22;20464;-69
2021/08/18 04:02:30;;;;;;;8.97;6.30;;;13.80;99.90;;;;;;6269017;22;20655;-69
2021/08/18 04:04:55;;;;;;;8.77;6.30;;;13.70;99.90;;;;;;6274276;22;20178;-68
2021/08/18 04:07:21;;;;;;;8.97;6.33;;;13.70;99.90;;;;;;6273916;22;20145;-69
2021/08/18 04:09:47;;;;;;;9.60;6.50;;;13.60;99.90;;;;;;6273659;22;20154;-68
2021/08/18 04:12:12;;;;;;;8.87;6.57;;;13.50;99.90;;;;;;6247223;22;20187;-68
2021/08/18 04:14:38;;;;;;;8.10;6.07;;;13.70;99.90;;;;;;6271951;22;20177;-69
2021/08/18 04:17:04;;;;;;;8.63;6.50;;;13.80;99.90;;;;;;6273928;22;20167;-69
2021/08/18 04:19:29;;;;;;;10.23;6.93;;;14.00;99.90;;;;;;6273477;22;20173;-68
2021/08/18 04:21:55;;;;;;;8.47;6.10;;;14.10;99.90;;;;;;6273722;22;20148;-68
2021/08/18 04:24:20;;;;;;;8.00;6.37;;;14.20;99.90;;;;;;6273539;22;20654;-69
2021/08/18 04:26:46;;;;;;;9.73;6.17;;;14.20;99.90;;;;;;6274093;22;20196;-68
2021/08/18 04:29:12;;;;;;;8.97;6.20;;;14.20;99.90;;;;;;6273549;22;20151;-68
2021/08/18 04:31:37;;;;;;;7.93;6.10;;;14.40;99.90;;;;;;6273765;22;20153;-68
2021/08/18 04:34:03;;;;;;;8.93;6.17;;;14.40;99.90;;;;;;6273883;22;20161;-69
2021/08/18 04:36:28;;;;;;;9.00;6.40;;;14.50;99.90;;;;;;6273646;22;20164;-68
2021/08/18 04:38:54;;;;;;;7.77;5.80;;;14.60;99.90;;;;;;6273465;22;20145;-69
2021/08/18 04:41:20;;;;;;;11.60;6.67;;;14.70;99.90;;;;;;6273714;22;20149;-69
2021/08/18 04:43:45;;;;;;;8.03;5.93;;;14.80;99.90;;;;;;6273802;22;20151;-68
2021/08/18 04:46:11;;;;;;;10.37;7.00;;;14.80;99.90;;;;;;6273574;22;20179;-69
2021/08/18 04:48:36;;;;;;;9.37;6.70;;;14.90;99.90;;;;;;6273328;22;20153;-69
2021/08/18 04:51:02;;;;;;;8.27;6.10;;;14.80;99.90;;;;;;6273616;22;20159;-69
2021/08/18 04:53:28;;;;;;;9.53;6.57;;;14.80;99.90;;;;;;6273686;22;20152;-69
2021/08/18 04:58:21;;;;;;;8.60;6.50;;;14.80;99.90;;;;;;6242783;23;20173;-61
2021/08/18 05:00:47;;;;;;;9.13;6.47;;;15.80;99.90;;;;;;6241861;22;20200;-60
2021/08/18 05:03:13;;;;;;;9.60;6.97;;;14.80;99.90;;;;;;6242560;22;20150;-64
2021/08/18 05:05:40;;;;;;;9.27;6.33;;;14.80;99.90;;;;;;6241079;22;20147;-61
2021/08/18 05:08:07;;;;;;;9.33;6.33;;;16.30;99.90;;;;;;6212321;23;20153;-63
2021/08/18 05:10:33;;;;;;;9.87;6.60;;;15.80;99.90;;;;;;6211341;23;20609;-64
2021/08/18 05:12:59;;;;;;;9.87;6.60;;;14.80;99.90;;;;;;6212110;23;20154;-64
2021/08/18 05:15:25;;;;;;;8.70;6.20;;;15.10;99.90;;;;;;6212062;23;20209;-61
2021/08/18 05:17:50;;;;;;;10.23;6.87;;;14.90;99.90;;;;;;6212430;23;20173;-60
2021/08/18 05:20:16;;;;;;;10.10;7.00;;;15.00;99.90;;;;;;6211104;23;20150;-61
2021/08/18 05:22:43;;;;;;;9.47;6.77;;;15.10;99.90;;;;;;6212273;23;20206;-63
2021/08/18 05:25:10;;;;;;;9.97;7.03;;;15.00;99.90;;;;;;6211255;23;20204;-60
2021/08/18 05:27:35;;;;;;;10.57;7.23;;;15.00;99.90;;;;;;6210615;23;20171;-60
2021/08/18 05:30:01;;;;;;;10.30;7.33;;;15.00;99.90;;;;;;6211896;23;20532;-60
2021/08/18 05:32:26;;;;;;;10.30;7.47;;;15.00;99.90;;;;;;6212271;23;20162;-60
2021/08/18 05:34:52;;;;;;;8.93;6.70;;;15.00;99.90;;;;;;6210708;23;20606;-60
2021/08/18 05:37:17;;;;;;;10.40;7.63;;;15.10;99.90;;;;;;6211689;23;20169;-60
2021/08/18 05:39:43;;;;;;;9.03;6.70;;;15.00;99.90;;;;;;6213919;23;20154;-61
2021/08/18 05:42:09;;;;;;;11.13;7.97;;;15.00;99.90;;;;;;6214308;23;20157;-62
2021/08/18 05:44:34;;;;;;;9.57;7.17;;;15.00;99.90;;;;;;6214309;23;20224;-63
2021/08/18 05:47:00;;;;;;;10.47;7.47;;;14.90;99.90;;;;;;6214414;23;20228;-60
2021/08/18 05:49:25;;;;;;;10.50;7.80;;;14.80;99.90;;;;;;6213946;23;20185;-63
2021/08/18 05:51:51;;;;;;;9.07;6.60;;;14.80;99.90;;;;;;6214592;23;20199;-62
2021/08/18 05:54:18;;;;;;;8.53;6.43;;;14.70;99.90;;;;;;6212534;23;20269;-64
2021/08/18 05:56:43;;;;;;;9.70;6.70;;;14.60;99.90;;;;;;6211029;23;20191;-63
2021/08/18 05:59:09;;;;;;;9.50;7.03;;;15.70;99.90;;;;;;6206452;23;20195;-62
2021/08/18 06:01:35;;;;;;;11.30;7.77;;;14.60;99.90;;;;;;6212298;23;20150;-62
2021/08/18 06:04:00;;;;;;;15.20;8.53;;;14.70;99.90;;;;;;6212110;23;20664;-64
2021/08/18 06:06:28;;;;;;;9.03;6.60;;;14.70;99.90;;;;;;6212035;23;20170;-63
2021/08/18 06:08:53;;;;;;;9.97;7.03;;;14.60;99.90;;;;;;6211340;23;20163;-63
2021/08/18 06:11:19;;;;;;;11.57;7.37;;;14.70;99.90;;;;;;6212755;23;20588;-63
2021/08/18 06:13:44;;;;;;;10.93;6.80;;;14.70;99.90;;;;;;6214089;23;20514;-57
2021/08/18 06:16:10;;;;;;;11.37;7.53;;;14.70;99.90;;;;;;6205767;23;20194;-60
2021/08/18 06:18:35;;;;;;;11.03;7.37;;;14.80;99.90;;;;;;6211748;23;20569;-61
2021/08/18 06:21:01;;;;;;;9.10;7.07;;;14.80;99.90;;;;;;6213864;23;20146;-59
2021/08/18 06:23:29;;;;;;;9.73;6.77;;;14.90;99.90;;;;;;6213466;23;20208;-60
2021/08/18 06:25:54;;;;;;;10.03;7.00;;;14.80;99.90;;;;;;6213682;23;20477;-61
2021/08/18 06:28:20;;;;;;;9.53;7.00;;;14.90;99.90;;;;;;6213536;23;20233;-60
2021/08/18 06:30:46;;;;;;;11.77;7.30;;;14.90;99.90;;;;;;6213206;23;20150;-60
2021/08/18 06:33:12;;;;;;;9.13;7.10;;;14.80;99.90;;;;;;6214060;23;20162;-59
2021/08/18 06:35:37;;;;;;;13.27;8.90;;;14.80;99.90;;;;;;6213813;23;20182;-60
2021/08/18 06:38:03;;;;;;;14.87;9.50;;;14.70;99.90;;;;;;6213819;23;20152;-61
2021/08/18 06:40:29;;;;;;;11.63;8.13;;;14.60;99.90;;;;;;6213504;23;20148;-60
2021/08/18 06:42:54;;;;;;;12.17;8.87;;;14.70;99.90;;;;;;6213777;23;20157;-60
2021/08/18 06:45:21;;;;;;;12.30;8.03;;;14.60;99.90;;;;;;6214109;23;20601;-60
2021/08/18 06:47:46;;;;;;;9.90;7.93;;;14.50;99.90;;;;;;6213357;23;20205;-60
2021/08/18 06:50:12;;;;;;;18.23;10.20;;;14.30;99.90;;;;;;6213418;23;20154;-60
2021/08/18 06:52:38;;;;;;;10.93;7.60;;;14.20;99.90;;;;;;6213989;23;20600;-59
2021/08/18 06:55:08;;;;;;;10.63;7.57;;;14.20;99.90;;;;;;6213454;23;20742;-60
2021/08/18 06:57:33;;;;;;;11.23;8.00;;;14.20;99.90;;;;;;6209783;23;20644;-60
2021/08/18 06:59:59;;;;;;;13.60;8.47;;;14.10;99.90;;;;;;6204003;23;20195;-60
2021/08/18 07:02:25;;;;;;;14.23;9.23;;;14.10;99.90;;;;;;6205304;23;20197;-60
2021/08/18 07:04:50;;;;;;;12.17;8.00;;;14.10;99.90;;;;;;6213568;23;20155;-60
2021/08/18 07:07:16;;;;;;;12.83;8.63;;;14.20;99.90;;;;;;6213301;23;20641;-60
2021/08/18 07:09:41;;;;;;;11.73;8.60;;;14.20;99.90;;;;;;6211691;23;20609;-60
2021/08/18 07:12:08;;;;;;;10.87;7.60;;;14.20;99.90;;;;;;6213448;23;20154;-59
2021/08/18 07:14:33;;;;;;;10.73;7.90;;;14.20;99.90;;;;;;6213682;23;20186;-60
2021/08/18 07:16:59;;;;;;;15.17;8.60;;;14.30;99.90;;;;;;6212966;23;20173;-59
2021/08/18 07:19:24;;;;;;;12.53;8.47;;;14.40;99.90;;;;;;6211590;23;20149;-59
2021/08/18 07:21:50;;;;;;;13.20;8.53;;;15.30;99.90;;;;;;6213349;23;20151;-58
2021/08/18 07:24:15;;;;;;;12.33;8.47;;;14.60;99.90;;;;;;6213638;23;20148;-59
2021/08/18 07:26:41;;;;;;;10.97;8.20;;;14.50;99.90;;;;;;6211580;23;20171;-58
2021/08/18 07:29:06;;;;;;;12.63;8.63;;;14.70;99.90;;;;;;6212311;23;20164;-58
2021/08/18 07:31:32;;;;;;;11.67;8.50;;;14.70;99.90;;;;;;6213115;23;20147;-53
2021/08/18 07:33:57;;;;;;;11.20;7.97;;;14.80;99.90;;;;;;6213017;23;20529;-58
2021/08/18 07:36:23;;;;;;;11.17;8.00;;;15.00;99.90;;;;;;6212914;23;20243;-56
2021/08/18 07:38:49;;;;;;;11.67;8.43;;;14.90;99.90;;;;;;6212839;23;20594;-55
2021/08/18 07:41:15;;;;;;;13.70;9.90;;;14.90;99.90;;;;;;6213150;23;20151;-57
2021/08/18 07:43:40;;;;;;;12.40;8.43;;;14.70;99.90;;;;;;6213212;23;20182;-55
2021/08/18 07:46:06;;;;;;;12.17;9.00;;;14.70;99.90;;;;;;6211055;23;20265;-55
2021/08/18 07:48:31;;;;;;;13.27;9.17;;;14.70;99.90;;;;;;6212772;23;20174;-56
2021/08/18 07:50:58;;;;;;;14.70;8.67;;;14.70;99.90;;;;;;6213046;23;20158;-58
2021/08/18 07:53:24;;;;;;;11.77;7.93;;;14.70;99.90;;;;;;6213078;23;20151;-57
2021/08/18 07:55:50;;;;;;;13.10;8.50;;;14.80;99.90;;;;;;6212449;23;20185;-58
2021/08/18 07:58:15;;;;;;;11.40;8.10;;;14.90;99.90;;;;;;6212829;23;20170;-54
2021/08/18 08:00:41;;;;;;;11.87;8.43;;;15.10;99.90;;;;;;6210723;23;20155;-54
2021/08/18 08:03:08;;;;;;;10.90;7.93;;;15.40;99.90;;;;;;6213059;23;20178;-51
2021/08/18 08:05:34;;;;;;;9.87;7.43;;;15.50;99.90;;;;;;6212961;23;20155;-53
2021/08/18 08:07:59;;;;;;;11.57;7.97;;;16.30;99.90;;;;;;6212871;23;20159;-58
2021/08/18 08:10:25;;;;;;;11.70;8.73;;;15.80;99.90;;;;;;6212635;23;20154;-52
2021/08/18 08:12:51;;;;;;;11.47;8.77;;;15.70;99.90;;;;;;6212899;23;20186;-53
2021/08/18 08:15:17;;;;;;;9.87;7.43;;;15.60;99.90;;;;;;6212683;23;20567;-56
2021/08/18 08:17:42;;;;;;;12.47;7.83;;;15.70;99.90;;;;;;6212587;23;20502;-55
2021/08/18 08:20:09;;;;;;;11.57;7.93;;;15.80;99.90;;;;;;6212420;23;20239;-55
2021/08/18 08:22:35;;;;;;;12.27;8.13;;;16.00;99.90;;;;;;6213159;23;20531;-52
2021/08/18 08:25:02;;;;;;;10.57;7.50;;;16.10;99.90;;;;;;6213125;23;20156;-53
2021/08/18 08:27:28;;;;;;;9.27;7.17;;;16.20;99.90;;;;;;6212319;23;20167;-53
2021/08/18 08:29:54;;;;;;;12.63;8.00;;;16.30;99.90;;;;;;6212233;23;20151;-57
2021/08/18 08:32:19;;;;;;;11.10;7.50;;;16.30;99.90;;;;;;6213126;23;20161;-54
2021/08/18 08:34:45;;;;;;;9.97;7.80;;;16.40;99.90;;;;;;6212653;23;20167;-54
2021/08/18 08:37:10;;;;;;;8.33;6.73;;;16.50;99.90;;;;;;6212389;23;20173;-51
2021/08/18 08:39:36;;;;;;;10.87;7.73;;;16.80;99.90;;;;;;6212349;23;20610;-56
2021/08/18 08:42:03;;;;;;;11.87;7.43;;;16.90;99.90;;;;;;6212603;23;20148;-56
2021/08/18 08:44:29;;;;;;;8.57;6.90;;;16.80;99.90;;;;;;6212898;23;20158;-55
2021/08/18 08:46:55;;;;;;;10.50;7.57;;;16.80;99.90;;;;;;6212426;23;20222;-52
2021/08/18 08:49:22;;;;;;;9.57;7.17;;;16.80;99.90;;;;;;6212365;23;20488;-55
2021/08/18 08:51:51;;;;;;;8.63;6.67;;;16.60;99.90;;;;;;6212523;23;20635;-53
2021/08/18 08:54:17;;;;;;;11.43;7.30;;;16.70;99.90;;;;;;6212847;23;20182;-55
2021/08/18 08:56:42;;;;;;;9.93;6.90;;;17.00;99.90;;;;;;6212032;23;20208;-54
2021/08/18 08:59:09;;;;;;;8.13;6.47;;;17.20;99.90;;;;;;6212608;23;20157;-54
2021/08/18 09:02:02;;;;;;;10.83;7.93;;;17.50;99.90;;;;;;6212564;23;20234;-55
2021/08/18 09:04:46;;;;;;;8.60;6.90;;;17.70;99.90;;;;;;6212648;23;20602;-57
2021/08/18 09:07:17;;;;;;;9.73;7.23;;;17.90;99.90;;;;;;6212320;23;20629;-54
2021/08/18 09:10:04;;;;;;;7.80;6.23;;;18.30;99.90;;;;;;6212136;23;20613;-55
2021/08/18 09:12:34;;;;;;;8.90;6.53;;;18.90;99.90;;;;;;6214355;23;20668;-58
2021/08/18 09:15:20;;;;;;;7.93;6.53;;;19.10;99.90;;;;;;6214848;23;20183;-52
2021/08/18 09:17:49;;;;;;;10.43;7.03;;;19.30;99.90;;;;;;6214061;23;20166;-55
2021/08/18 09:20:18;;;;;;;7.63;6.23;;;19.30;99.90;;;;;;6214211;23;20192;-55
2021/08/18 09:22:47;;;;;;;9.13;6.37;;;19.20;99.90;;;;;;6214848;23;20155;-58
2021/08/18 09:25:39;;;;;;;7.40;5.90;;;18.90;99.90;;;;;;6214432;23;20162;-58
2021/08/18 09:28:05;;;;;;;9.33;6.77;;;18.60;99.90;;;;;;6212425;23;20167;-56
2021/08/18 09:30:34;;;;;;;8.73;6.67;;;18.40;99.90;;;;;;6214168;23;20486;-57
2021/08/18 09:33:10;;;;;;;8.10;6.47;;;18.30;99.90;;;;;;6214743;23;20151;-57
2021/08/18 09:35:36;;;;;;;7.40;6.13;;;18.20;99.90;;;;;;6214477;23;20253;-54
2021/08/18 09:38:06;;;;;;;7.13;5.40;;;18.50;99.90;;;;;;6214295;23;20151;-51
2021/08/18 09:40:35;;;;;;;8.30;5.80;;;18.50;99.90;;;;;;6213976;23;20459;-54
2021/08/18 09:43:14;;;;;;;7.43;5.93;;;18.50;99.90;;;;;;6214326;23;20155;-57
2021/08/18 09:45:46;;;;;;;7.50;5.73;;;18.30;99.90;;;;;;6214447;23;20138;-55
2021/08/18 09:48:17;;;;;;;7.20;5.40;;;18.50;99.90;;;;;;6214362;23;20206;-49
2021/08/18 09:51:11;;;;;;;6.53;5.20;;;18.50;99.90;;;;;;6214436;23;20156;-58
2021/08/18 09:53:42;;;;;;;6.47;5.17;;;18.30;99.90;;;;;;6213900;23;20159;-49
2021/08/18 09:56:15;;;;;;;6.97;5.03;;;18.10;99.90;;;;;;6213726;23;20183;-57
2021/08/18 09:58:46;;;;;;;6.63;4.70;;;18.00;99.90;;;;;;6214029;23;20185;-55
2021/08/18 10:01:14;;;;;;;6.83;5.07;;;17.90;99.90;;;;;;6214310;23;20136;-53
2021/08/18 10:03:45;;;;;;;5.83;4.97;;;18.00;99.90;;;;;;6214055;23;20598;-53
2021/08/18 10:06:12;;;;;;;6.60;5.07;;;17.70;99.90;;;;;;6214039;23;20207;-54
2021/08/18 10:08:39;;;;;;;6.20;4.90;;;17.50;99.90;;;;;;6214001;23;20155;-51
2021/08/18 10:11:06;;;;;;;7.57;4.90;;;17.50;99.90;;;;;;6214227;23;20254;-55
2021/08/18 10:13:32;;;;;;;6.20;4.60;;;17.50;99.90;;;;;;6214363;23;20182;-56
2021/08/18 10:15:58;;;;;;;5.03;4.20;;;17.60;99.90;;;;;;6214033;23;20183;-57
2021/08/18 10:18:37;;;;;;;5.63;4.43;;;17.50;99.90;;;;;;6214093;23;20144;-53
2021/08/18 10:21:09;;;;;;;5.83;4.43;;;17.60;99.90;;;;;;6214706;23;20150;-56
2021/08/18 10:23:44;;;;;;;6.17;4.67;;;17.60;99.90;;;;;;6214105;23;20226;-56
2021/08/18 10:26:34;;;;;;;5.97;4.50;;;17.80;99.90;;;;;;6213803;23;20175;-56
2021/08/18 10:29:04;;;;;;;6.43;5.00;;;18.10;99.90;;;;;;6213754;23;20201;-56
2021/08/18 10:31:45;;;;;;;6.40;4.97;;;18.30;99.90;;;;;;6207290;23;20198;-60
2021/08/18 10:34:26;;;;;;;5.93;4.57;;;18.30;99.90;;;;;;6212569;23;20139;-56
2021/08/18 10:36:56;;;;;;;5.57;4.53;;;18.40;99.90;;;;;;6213623;23;20163;-56
2021/08/18 10:39:22;;;;;;;6.57;4.73;;;18.40;99.90;;;;;;6214020;23;20155;-57
2021/08/18 10:42:13;;;;;;;7.37;5.20;;;18.70;99.90;;;;;;6213916;23;20213;-51
2021/08/18 10:44:40;;;;;;;5.63;5.03;;;19.10;99.90;;;;;;6213511;23;20201;-58
2021/08/18 10:47:25;;;;;;;6.67;5.30;;;19.20;99.90;;;;;;6213176;23;20179;-52
2021/08/18 10:49:54;;;;;;;8.90;4.95;;;19.50;99.90;;;;;;6213131;23;20227;-57
2021/08/18 10:52:28;;;;;;;5.88;5.00;;;19.80;99.90;;;;;;6213387;23;20615;-53
2021/08/18 10:55:13;;;;;;;5.72;4.80;;;20.00;99.90;;;;;;6213473;23;20178;-53
2021/08/18 10:57:50;;;;;;;6.53;5.07;;;19.80;99.90;;;;;;6213140;23;20194;-57
2021/08/18 11:00:36;;;;;;;5.43;4.60;;;19.40;99.90;;;;;;6213163;23;20327;-56
2021/08/18 11:03:08;;;;;;;5.77;4.77;;;19.30;99.90;;;;;;6213494;23;20151;-59
2021/08/18 11:05:36;;;;;;;6.27;5.07;;;19.10;99.90;;;;;;6213551;23;20474;-56
2021/08/18 11:08:06;;;;;;;7.17;5.17;;;18.60;99.90;;;;;;6213359;23;20179;-54
2021/08/18 11:10:41;;;;;;;6.30;4.93;;;18.40;99.90;;;;;;6212875;23;20155;-49
2021/08/18 11:13:09;;;;;;;6.50;4.70;;;18.20;99.90;;;;;;6213887;23;20222;-53
2021/08/18 11:15:47;;;;;;;6.00;4.90;;;18.00;99.90;;;;;;6213395;23;20250;-57
2021/08/18 11:18:17;;;;;;;7.23;4.77;;;18.00;99.90;;;;;;6213386;23;20546;-58
2021/08/18 11:20:47;;;;;;;5.63;4.70;;;18.10;99.90;;;;;;6213363;23;20140;-54
2021/08/18 11:23:14;;;;;;;5.53;4.57;;;18.10;99.90;;;;;;6213824;23;20637;-59
2021/08/18 11:25:44;;;;;;;5.40;4.60;;;18.10;99.90;;;;;;6213126;23;20201;-55
2021/08/18 11:28:23;;;;;;;7.00;5.33;;;18.20;99.90;;;;;;6213152;23;20590;-58
2021/08/18 11:31:00;;;;;;;5.60;4.67;;;18.20;99.90;;;;;;6213145;23;20152;-56
2021/08/18 11:33:27;;;;;;;5.77;5.00;;;18.40;99.90;;;;;;6213561;23;20190;-54
2021/08/18 11:35:52;;;;;;;6.70;5.33;;;18.50;99.90;;;;;;6212363;23;20185;-55
2021/08/18 11:38:19;;;;;;;7.03;5.20;;;18.40;99.90;;;;;;6213157;23;20665;-57
2021/08/18 11:40:48;;;;;;;6.07;5.40;;;18.40;99.90;;;;;;6213025;23;20525;-57
2021/08/18 11:43:15;;;;;;;6.33;5.23;;;18.40;99.90;;;;;;6213232;23;20151;-60
2021/08/18 11:45:40;;;;;;;5.70;4.50;;;18.40;99.90;;;;;;6213023;23;20152;-57
2021/08/18 11:48:10;;;;;;;6.03;5.30;;;18.50;99.90;;;;;;6213113;23;20166;-57
2021/08/18 11:50:49;;;;;;;7.23;4.93;;;18.60;99.90;;;;;;6212818;23;20555;-56
2021/08/18 11:53:16;;;;;;;7.10;5.20;;;18.60;99.90;;;;;;6213193;23;20143;-56
2021/08/18 11:55:42;;;;;;;7.07;5.10;;;18.60;99.90;;;;;;6212642;23;20570;-58
2021/08/18 11:58:08;;;;;;;6.03;5.03;;;18.70;99.90;;;;;;6212677;23;20162;-56
2021/08/18 12:00:39;;;;;;;7.07;5.23;;;18.70;99.90;;;;;;6213018;23;20147;-57
2021/08/18 12:03:05;;;;;;;5.80;4.63;;;18.60;99.90;;;;;;6212932;23;20154;-54
2021/08/18 12:05:34;;;;;;;6.73;5.37;;;18.60;99.90;;;;;;6212691;23;20151;-55
2021/08/18 12:08:17;;;;;;;5.57;4.57;;;18.80;99.90;;;;;;6212922;23;20159;-56
2021/08/18 12:10:47;;;;;;;7.27;5.47;;;18.80;99.90;;;;;;6212567;23;20135;-56
2021/08/18 12:13:14;;;;;;;6.73;5.10;;;18.80;99.90;;;;;;6212882;23;20171;-52
2021/08/18 12:15:44;;;;;;;6.87;5.10;;;18.40;99.90;;;;;;6212331;23;20179;-59
2021/08/18 12:18:38;;;;;;;5.23;4.70;;;18.30;99.90;;;;;;6212860;23;20537;-59
2021/08/18 12:21:19;;;;;;;7.80;5.10;;;18.40;99.90;;;;;;6213036;23;20149;-55
2021/08/18 12:23:48;;;;;;;6.87;5.43;;;18.60;99.90;;;;;;6212936;23;20620;-55
2021/08/18 12:26:28;;;;;;;7.10;5.00;;;18.60;99.90;;;;;;6210667;23;20229;-57
2021/08/18 12:28:56;;;;;;;6.73;5.00;;;18.50;99.90;;;;;;6212530;23;20187;-60
2021/08/18 12:31:22;;;;;;;6.87;5.20;;;18.50;99.90;;;;;;6212961;23;20664;-56
2021/08/18 12:34:08;;;;;;;6.23;4.90;;;18.50;99.90;;;;;;6211243;23;20155;-54
2021/08/18 12:36:35;;;;;;;6.23;4.93;;;18.60;99.90;;;;;;6212709;23;20182;-58
2021/08/18 12:39:02;;;;;;;6.73;5.50;;;18.40;99.90;;;;;;6212428;23;20201;-59
2021/08/18 12:41:29;;;;;;;7.33;5.23;;;18.40;99.90;;;;;;6212613;23;20147;-55
2021/08/18 12:44:05;;;;;;;8.27;5.33;;;18.30;99.90;;;;;;6212187;23;20653;-57
2021/08/18 12:46:35;;;;;;;7.97;5.20;;;18.20;99.90;;;;;;6212466;23;20198;-58
2021/08/18 12:49:26;;;;;;;8.03;5.37;;;18.20;99.90;;;;;;6212360;23;20155;-57
2021/08/18 12:51:53;;;;;;;6.63;5.30;;;18.30;99.90;;;;;;6212858;23;20163;-52